createdAt,value
2018-09-17T00:00:43.232Z,12.51
2018-09-17T00:01:51.872Z,12.58
2018-09-17T00:03:00.519Z,12.57
2018-09-17T00:04:09.161Z,12.45
2018-09-17T00:05:17.803Z,12.43
2018-09-17T00:06:26.442Z,12.48
2018-09-17T00:07:35.088Z,12.47
2018-09-17T00:08:43.734Z,12.39
2018-09-17T00:09:52.373Z,12.5
2018-09-17T00:11:01.015Z,12.43
2018-09-17T00:12:09.661Z,12.47
2018-09-17T00:13:18.307Z,12.53
2018-09-17T00:14:26.951Z,12.48
2018-09-17T00:15:35.593Z,12.44
2018-09-17T00:16:44.499Z,12.39
2018-09-17T00:17:53.151Z,12.48
2018-09-17T00:19:02.052Z,12.45
2018-09-17T00:20:10.698Z,12.43
2018-09-17T00:21:19.338Z,12.37
2018-09-17T00:22:27.987Z,12.43
2018-09-17T00:23:36.627Z,12.3
2018-09-17T00:24:45.265Z,12.43
2018-09-17T00:25:53.905Z,12.39
2018-09-17T00:27:02.545Z,12.39
2018-09-17T00:28:11.197Z,12.39
2018-09-17T00:29:19.835Z,12.3
2018-09-17T00:30:28.484Z,12.35
2018-09-17T00:31:37.116Z,12.29
2018-09-17T00:32:45.773Z,12.26
2018-09-17T00:33:54.409Z,12.25
2018-09-17T00:35:03.055Z,12.11
2018-09-17T00:36:11.688Z,12.21
2018-09-17T00:37:20.340Z,12.14
2018-09-17T00:38:28.982Z,12.11
2018-09-17T00:39:37.626Z,12.17
2018-09-17T00:40:46.522Z,12.3
2018-09-17T00:41:55.167Z,12.21
2018-09-17T00:43:04.080Z,12.18
2018-09-17T00:44:12.727Z,12.17
2018-09-17T00:45:21.637Z,12.18
2018-09-17T00:46:30.534Z,12.18
2018-09-17T00:47:39.180Z,12.15
2018-09-17T00:48:47.818Z,12.17
2018-09-17T00:49:56.470Z,12.21
2018-09-17T00:51:05.103Z,12.23
2018-09-17T00:52:13.750Z,12.17
2018-09-17T00:53:22.659Z,12.2
2018-09-17T00:54:31.577Z,12.18
2018-09-17T00:55:40.473Z,12.23
2018-09-17T00:56:49.387Z,12.17
2018-09-17T00:57:58.071Z,12.28
2018-09-17T00:59:06.675Z,12.14
2018-09-17T01:00:15.322Z,12.18
2018-09-17T01:01:23.950Z,12.15
2018-09-17T01:02:32.860Z,12.23
2018-09-17T01:03:41.503Z,12.23
2018-09-17T01:04:50.154Z,12.21
2018-09-17T01:05:58.795Z,12.25
2018-09-17T01:07:07.440Z,12.23
2018-09-17T01:08:16.075Z,12.26
2018-09-17T01:09:24.726Z,12.17
2018-09-17T01:10:33.363Z,12.23
2018-09-17T01:11:42.009Z,12.21
2018-09-17T01:12:50.647Z,12.2
2018-09-17T01:13:59.295Z,12.18
2018-09-17T01:15:08.198Z,12.17
2018-09-17T01:16:17.111Z,12.17
2018-09-17T01:17:25.743Z,12.17
2018-09-17T01:18:34.390Z,12.11
2018-09-17T01:19:43.297Z,12.12
2018-09-17T01:20:51.932Z,12.17
2018-09-17T01:22:00.574Z,12.14
2018-09-17T01:23:09.223Z,12.18
2018-09-17T01:24:17.857Z,12.18
2018-09-17T01:25:26.506Z,12.18
2018-09-17T01:26:35.139Z,12.17
2018-09-17T01:27:43.790Z,12.15
2018-09-17T01:28:52.428Z,12.14
2018-09-17T01:30:01.082Z,12.18
2018-09-17T01:31:09.712Z,12.11
2018-09-17T01:32:18.366Z,12.12
2018-09-17T01:33:27.004Z,12.17
2018-09-17T01:34:35.648Z,12.17
2018-09-17T01:35:44.280Z,12.18
2018-09-17T01:36:53.187Z,12.11
2018-09-17T01:38:01.836Z,12.18
2018-09-17T01:39:10.742Z,12.14
2018-09-17T01:40:19.388Z,12.18
2018-09-17T01:41:28.025Z,12.08
2018-09-17T01:42:36.671Z,12.1
2018-09-17T01:43:45.574Z,12.1
2018-09-17T01:44:54.501Z,12.03
2018-09-17T01:46:03.146Z,12.07
2018-09-17T01:47:12.057Z,12
2018-09-17T01:48:20.697Z,11.99
2018-09-17T01:49:29.624Z,12.05
2018-09-17T01:50:38.256Z,12.11
2018-09-17T01:51:46.904Z,12.03
2018-09-17T01:52:55.800Z,12.11
2018-09-17T01:54:04.451Z,12.14
2018-09-17T01:55:13.093Z,12.14
2018-09-17T01:56:21.733Z,12.15
2018-09-17T01:57:30.374Z,12.21
2018-09-17T01:58:39.013Z,12.14
2018-09-17T01:59:47.665Z,12.08
2018-09-17T02:00:56.563Z,12.21
2018-09-17T02:02:05.209Z,12.14
2018-09-17T02:03:13.848Z,12.21
2018-09-17T02:04:22.495Z,12.21
2018-09-17T02:05:31.136Z,12.15
2018-09-17T02:06:39.781Z,12.14
2018-09-17T02:07:48.416Z,12.15
2018-09-17T02:08:57.132Z,12.14
2018-09-17T02:10:06.075Z,12.14
2018-09-17T02:11:14.982Z,12.15
2018-09-17T02:12:23.622Z,12.15
2018-09-17T02:13:32.797Z,12.2
2018-09-17T02:14:41.705Z,12.18
2018-09-17T02:15:50.351Z,12.12
2018-09-17T02:16:58.996Z,12.08
2018-09-17T02:18:07.631Z,12.11
2018-09-17T02:19:16.273Z,11.99
2018-09-17T02:20:24.913Z,12
2018-09-17T02:21:33.563Z,11.99
2018-09-17T02:22:42.200Z,12.07
2018-09-17T02:23:50.845Z,12.03
2018-09-17T02:24:59.490Z,12.02
2018-09-17T02:26:08.395Z,11.99
2018-09-17T02:27:17.032Z,12.02
2018-09-17T02:28:25.679Z,12
2018-09-17T02:29:34.317Z,11.97
2018-09-17T02:30:42.962Z,11.97
2018-09-17T02:31:51.608Z,11.97
2018-09-17T02:33:00.249Z,11.93
2018-09-17T02:34:08.893Z,11.91
2018-09-17T02:35:17.532Z,11.89
2018-09-17T02:36:26.179Z,12
2018-09-17T02:37:34.822Z,11.85
2018-09-17T02:38:43.465Z,11.93
2018-09-17T02:39:52.103Z,11.83
2018-09-17T02:41:00.759Z,11.83
2018-09-17T02:42:09.666Z,11.81
2018-09-17T02:43:18.305Z,11.77
2018-09-17T02:44:27.204Z,11.78
2018-09-17T02:45:35.855Z,11.81
2018-09-17T02:46:44.494Z,11.77
2018-09-17T02:47:53.669Z,11.83
2018-09-17T02:49:02.311Z,11.78
2018-09-17T02:50:11.218Z,11.78
2018-09-17T02:51:19.871Z,11.83
2018-09-17T02:52:28.541Z,11.78
2018-09-17T02:53:37.220Z,11.85
2018-09-17T02:54:45.807Z,11.86
2018-09-17T02:55:54.451Z,11.81
2018-09-17T02:57:03.091Z,11.83
2018-09-17T02:58:11.779Z,11.81
2018-09-17T02:59:20.384Z,11.83
2018-09-17T03:00:29.031Z,11.8
2018-09-17T03:01:37.682Z,11.78
2018-09-17T03:02:46.330Z,11.81
2018-09-17T03:03:54.972Z,11.77
2018-09-17T03:05:03.621Z,11.77
2018-09-17T03:06:12.258Z,11.7
2018-09-17T03:07:20.906Z,11.76
2018-09-17T03:08:29.553Z,11.73
2018-09-17T03:09:38.196Z,11.74
2018-09-17T03:10:47.097Z,11.71
2018-09-17T03:11:55.747Z,11.76
2018-09-17T03:13:04.393Z,11.71
2018-09-17T03:14:13.045Z,11.76
2018-09-17T03:15:21.702Z,11.73
2018-09-17T03:16:30.602Z,11.71
2018-09-17T03:17:39.521Z,11.71
2018-09-17T03:18:48.158Z,11.76
2018-09-17T03:19:56.808Z,11.71
2018-09-17T03:21:05.452Z,11.67
2018-09-17T03:22:14.370Z,11.7
2018-09-17T03:23:23.011Z,11.71
2018-09-17T03:24:31.742Z,11.74
2018-09-17T03:25:40.580Z,11.71
2018-09-17T03:26:49.507Z,11.7
2018-09-17T03:27:58.157Z,11.68
2018-09-17T03:29:06.808Z,11.67
2018-09-17T03:30:15.455Z,11.63
2018-09-17T03:31:24.098Z,11.73
2018-09-17T03:32:33.303Z,11.63
2018-09-17T03:33:41.943Z,11.71
2018-09-17T03:34:50.602Z,11.68
2018-09-17T03:35:59.498Z,11.68
2018-09-17T03:37:08.143Z,11.67
2018-09-17T03:38:16.790Z,11.7
2018-09-17T03:39:25.445Z,11.68
2018-09-17T03:40:34.079Z,11.58
2018-09-17T03:41:43.000Z,11.63
2018-09-17T03:42:51.641Z,11.6
2018-09-17T03:44:00.298Z,11.65
2018-09-17T03:45:09.206Z,11.67
2018-09-17T03:46:17.850Z,11.67
2018-09-17T03:47:26.483Z,11.65
2018-09-17T03:48:35.126Z,11.65
2018-09-17T03:49:43.777Z,11.65
2018-09-17T03:50:52.422Z,11.65
2018-09-17T03:52:01.070Z,11.68
2018-09-17T03:53:09.707Z,11.68
2018-09-17T03:54:18.355Z,11.68
2018-09-17T03:55:26.992Z,11.68
2018-09-17T03:56:35.640Z,11.6
2018-09-17T03:57:44.273Z,11.65
2018-09-17T03:58:52.923Z,11.71
2018-09-17T04:00:01.566Z,11.63
2018-09-17T04:01:10.213Z,11.73
2018-09-17T04:02:18.850Z,11.65
2018-09-17T04:03:27.768Z,11.65
2018-09-17T04:04:36.414Z,11.68
2018-09-17T04:05:45.058Z,11.7
2018-09-17T04:06:53.704Z,11.7
2018-09-17T04:08:02.597Z,11.67
2018-09-17T04:09:11.298Z,11.68
2018-09-17T04:10:19.884Z,11.67
2018-09-17T04:11:28.535Z,11.62
2018-09-17T04:12:37.430Z,11.6
2018-09-17T04:13:46.084Z,11.67
2018-09-17T04:14:54.720Z,11.67
2018-09-17T04:16:03.368Z,11.53
2018-09-17T04:17:12.268Z,11.53
2018-09-17T04:18:20.913Z,11.58
2018-09-17T04:19:29.553Z,11.65
2018-09-17T04:20:38.204Z,11.63
2018-09-17T04:21:46.845Z,11.67
2018-09-17T04:22:55.745Z,11.68
2018-09-17T04:24:04.385Z,11.65
2018-09-17T04:25:13.291Z,11.68
2018-09-17T04:26:22.040Z,11.63
2018-09-17T04:27:30.943Z,11.71
2018-09-17T04:28:39.586Z,11.63
2018-09-17T04:29:48.220Z,11.71
2018-09-17T04:30:56.870Z,11.65
2018-09-17T04:32:05.769Z,11.74
2018-09-17T04:33:14.503Z,11.76
2018-09-17T04:34:23.049Z,11.7
2018-09-17T04:35:31.697Z,11.74
2018-09-17T04:36:40.341Z,11.68
2018-09-17T04:37:48.986Z,11.74
2018-09-17T04:38:57.624Z,11.7
2018-09-17T04:40:06.271Z,11.67
2018-09-17T04:41:14.911Z,11.67
2018-09-17T04:42:23.556Z,11.67
2018-09-17T04:43:32.475Z,11.68
2018-09-17T04:44:41.111Z,11.67
2018-09-17T04:45:50.017Z,11.6
2018-09-17T04:46:58.662Z,11.6
2018-09-17T04:48:07.305Z,11.67
2018-09-17T04:49:15.943Z,11.55
2018-09-17T04:50:24.587Z,11.56
2018-09-17T04:51:33.230Z,11.58
2018-09-17T04:52:41.874Z,11.55
2018-09-17T04:53:50.508Z,11.62
2018-09-17T04:54:59.154Z,11.53
2018-09-17T04:56:07.790Z,11.59
2018-09-17T04:57:16.468Z,11.59
2018-09-17T04:58:25.079Z,11.6
2018-09-17T04:59:33.989Z,11.63
2018-09-17T05:00:42.625Z,11.71
2018-09-17T05:01:51.266Z,11.6
2018-09-17T05:03:00.174Z,11.62
2018-09-17T05:04:09.078Z,11.71
2018-09-17T05:05:17.723Z,11.65
2018-09-17T05:06:26.360Z,11.63
2018-09-17T05:07:35.270Z,11.63
2018-09-17T05:08:43.912Z,11.59
2018-09-17T05:09:52.558Z,11.58
2018-09-17T05:11:01.197Z,11.65
2018-09-17T05:12:09.845Z,11.51
2018-09-17T05:13:18.696Z,11.52
2018-09-17T05:14:27.663Z,11.6
2018-09-17T05:15:36.310Z,11.53
2018-09-17T05:16:45.648Z,11.56
2018-09-17T05:17:54.292Z,11.52
2018-09-17T05:19:03.453Z,11.53
2018-09-17T05:20:12.097Z,11.65
2018-09-17T05:21:20.743Z,11.67
2018-09-17T05:22:29.383Z,11.65
2018-09-17T05:23:38.027Z,11.63
2018-09-17T05:24:46.665Z,11.65
2018-09-17T05:25:55.313Z,11.65
2018-09-17T05:27:03.953Z,11.65
2018-09-17T05:28:12.870Z,11.68
2018-09-17T05:29:21.507Z,11.68
2018-09-17T05:30:30.162Z,11.7
2018-09-17T05:31:39.060Z,11.68
2018-09-17T05:32:47.704Z,11.7
2018-09-17T05:33:56.343Z,11.7
2018-09-17T05:35:05.492Z,11.74
2018-09-17T05:36:14.280Z,11.76
2018-09-17T05:37:23.195Z,11.77
2018-09-17T05:38:31.842Z,11.73
2018-09-17T05:39:40.479Z,11.78
2018-09-17T05:40:49.124Z,11.74
2018-09-17T05:41:57.769Z,11.81
2018-09-17T05:43:06.417Z,11.74
2018-09-17T05:44:15.057Z,11.83
2018-09-17T05:45:23.983Z,11.88
2018-09-17T05:46:32.651Z,11.85
2018-09-17T05:47:41.273Z,11.88
2018-09-17T05:48:50.177Z,11.85
2018-09-17T05:49:59.221Z,11.93
2018-09-17T05:51:07.860Z,11.91
2018-09-17T05:52:16.508Z,12
2018-09-17T05:53:25.156Z,11.99
2018-09-17T05:54:33.792Z,11.97
2018-09-17T05:55:42.434Z,12
2018-09-17T05:56:51.334Z,12.11
2018-09-17T05:57:59.983Z,12.17
2018-09-17T05:59:08.625Z,12.14
2018-09-17T06:00:17.268Z,12.21
2018-09-17T06:01:25.905Z,12.17
2018-09-17T06:02:34.549Z,12.15
2018-09-17T06:03:43.193Z,12.23
2018-09-17T06:04:51.833Z,12.17
2018-09-17T06:06:00.498Z,12.2
2018-09-17T06:07:09.250Z,12.17
2018-09-17T06:08:17.764Z,12.29
2018-09-17T06:09:26.406Z,12.26
2018-09-17T06:10:35.044Z,12.3
2018-09-17T06:11:44.074Z,12.28
2018-09-17T06:12:52.672Z,12.29
2018-09-17T06:14:01.323Z,12.33
2018-09-17T06:15:09.972Z,12.3
2018-09-17T06:16:18.607Z,12.32
2018-09-17T06:17:27.683Z,12.25
2018-09-17T06:18:36.580Z,12.37
2018-09-17T06:19:45.498Z,12.43
2018-09-17T06:20:54.132Z,12.45
2018-09-17T06:22:02.779Z,12.47
2018-09-17T06:23:11.472Z,12.48
2018-09-17T06:24:20.069Z,12.4
2018-09-17T06:25:28.702Z,12.55
2018-09-17T06:26:37.396Z,12.58
2018-09-17T06:27:45.992Z,12.51
2018-09-17T06:28:54.963Z,12.51
2018-09-17T06:30:03.955Z,12.61
2018-09-17T06:31:12.824Z,12.62
2018-09-17T06:32:21.465Z,12.66
2018-09-17T06:33:30.104Z,12.62
2018-09-17T06:34:38.755Z,12.66
2018-09-17T06:35:47.395Z,12.65
2018-09-17T06:38:04.674Z,12.78
2018-09-17T06:39:13.325Z,12.78
2018-09-17T06:40:21.963Z,12.83
2018-09-17T06:41:30.653Z,12.84
2018-09-17T06:42:39.620Z,12.84
2018-09-17T06:43:48.270Z,12.99
2018-09-17T06:44:56.953Z,13.05
2018-09-17T06:46:05.557Z,13.02
2018-09-17T06:47:14.201Z,13.05
2018-09-17T06:48:23.111Z,13.21
2018-09-17T06:49:31.757Z,13.13
2018-09-17T06:50:40.403Z,13.26
2018-09-17T06:51:49.309Z,13.26
2018-09-17T06:52:57.944Z,13.31
2018-09-17T06:54:06.600Z,13.37
2018-09-17T06:55:15.498Z,13.47
2018-09-17T06:56:24.150Z,13.46
2018-09-17T06:57:32.789Z,13.58
2018-09-17T06:58:41.440Z,13.61
2018-09-17T06:59:50.079Z,13.67
2018-09-17T07:00:58.738Z,13.76
2018-09-17T07:02:07.369Z,13.68
2018-09-17T07:03:16.538Z,13.82
2018-09-17T07:04:25.177Z,13.8
2018-09-17T07:05:34.101Z,13.93
2018-09-17T07:06:42.738Z,13.94
2018-09-17T07:07:51.377Z,14.01
2018-09-17T07:09:00.031Z,14.11
2018-09-17T07:10:08.671Z,14.11
2018-09-17T07:11:17.326Z,14.12
2018-09-17T07:12:25.967Z,14.26
2018-09-17T07:13:34.617Z,14.28
2018-09-17T07:14:43.515Z,14.22
2018-09-17T07:15:52.431Z,14.31
2018-09-17T07:17:01.072Z,14.4
2018-09-17T07:18:09.771Z,14.38
2018-09-17T07:19:18.624Z,14.45
2018-09-17T07:20:27.277Z,14.44
2018-09-17T07:21:35.923Z,14.53
2018-09-17T07:22:44.567Z,14.63
2018-09-17T07:23:53.199Z,14.71
2018-09-17T07:25:01.846Z,14.81
2018-09-17T07:26:10.493Z,14.9
2018-09-17T07:27:19.138Z,14.93
2018-09-17T07:28:28.047Z,14.94
2018-09-17T07:29:36.683Z,15.04
2018-09-17T07:30:45.330Z,15.12
2018-09-17T07:31:53.968Z,15.19
2018-09-17T07:33:02.624Z,15.25
2018-09-17T07:34:11.254Z,15.27
2018-09-17T07:35:19.903Z,15.39
2018-09-17T07:36:28.935Z,15.47
2018-09-17T07:37:37.462Z,15.5
2018-09-17T07:38:46.104Z,15.5
2018-09-17T07:39:54.756Z,15.6
2018-09-17T07:41:03.392Z,15.66
2018-09-17T07:42:12.046Z,15.69
2018-09-17T07:43:20.687Z,15.85
2018-09-17T07:44:29.334Z,15.88
2018-09-17T07:45:37.984Z,16
2018-09-17T07:46:46.624Z,16.12
2018-09-17T07:47:55.321Z,16.22
2018-09-17T07:49:03.919Z,16.26
2018-09-17T07:50:12.568Z,16.46
2018-09-17T07:51:21.203Z,16.47
2018-09-17T07:52:29.859Z,16.62
2018-09-17T07:53:38.507Z,16.72
2018-09-17T07:54:47.154Z,16.73
2018-09-17T07:55:55.790Z,16.77
2018-09-17T07:57:04.447Z,16.83
2018-09-17T07:58:13.091Z,16.95
2018-09-17T07:59:21.738Z,16.95
2018-09-17T08:00:30.376Z,17.07
2018-09-17T08:01:39.023Z,17.1
2018-09-17T08:02:47.939Z,17.19
2018-09-17T08:03:56.586Z,17.27
2018-09-17T08:05:05.232Z,17.37
2018-09-17T08:06:13.868Z,17.35
2018-09-17T08:07:22.522Z,17.46
2018-09-17T08:08:31.158Z,17.46
2018-09-17T08:09:39.813Z,17.46
2018-09-17T08:10:48.452Z,17.53
2018-09-17T08:11:57.097Z,17.68
2018-09-17T08:13:05.742Z,17.63
2018-09-17T08:14:14.393Z,17.73
2018-09-17T08:15:23.041Z,17.73
2018-09-17T08:16:31.684Z,17.8
2018-09-17T08:17:40.329Z,17.82
2018-09-17T08:18:48.980Z,17.82
2018-09-17T08:19:57.626Z,17.84
2018-09-17T08:21:06.535Z,17.8
2018-09-17T08:22:15.177Z,17.9
2018-09-17T08:23:23.820Z,17.9
2018-09-17T08:24:32.521Z,17.94
2018-09-17T08:25:41.120Z,17.93
2018-09-17T08:26:49.768Z,17.91
2018-09-17T08:27:58.668Z,17.97
2018-09-17T08:29:07.318Z,17.93
2018-09-17T08:30:15.964Z,17.97
2018-09-17T08:31:24.676Z,17.91
2018-09-17T08:32:33.252Z,17.93
2018-09-17T08:33:42.168Z,17.94
2018-09-17T08:34:50.814Z,17.79
2018-09-17T08:35:59.462Z,17.82
2018-09-17T08:37:08.371Z,17.79
2018-09-17T08:38:17.066Z,17.78
2018-09-17T08:39:25.664Z,17.79
2018-09-17T08:40:34.308Z,17.79
2018-09-17T08:41:42.956Z,17.88
2018-09-17T08:42:51.598Z,18
2018-09-17T08:44:00.245Z,17.93
2018-09-17T08:45:08.884Z,17.98
2018-09-17T08:46:17.536Z,18.05
2018-09-17T08:47:26.179Z,18
2018-09-17T08:48:34.832Z,18.21
2018-09-17T08:49:43.743Z,18.27
2018-09-17T08:50:52.393Z,18.28
2018-09-17T08:52:01.042Z,18.45
2018-09-17T08:53:09.738Z,18.41
2018-09-17T08:54:18.336Z,18.42
2018-09-17T08:55:26.982Z,18.52
2018-09-17T08:56:35.625Z,18.51
2018-09-17T08:57:44.276Z,18.53
2018-09-17T08:58:52.919Z,18.58
2018-09-17T09:00:01.560Z,18.68
2018-09-17T09:01:10.211Z,18.73
2018-09-17T09:02:18.852Z,18.79
2018-09-17T09:03:27.501Z,18.85
2018-09-17T09:04:36.141Z,18.89
2018-09-17T09:05:44.791Z,18.96
2018-09-17T09:06:53.437Z,19.08
2018-09-17T09:08:02.083Z,19.12
2018-09-17T09:09:10.733Z,19.2
2018-09-17T09:10:19.374Z,19.22
2018-09-17T09:11:28.025Z,19.15
2018-09-17T09:12:36.668Z,19.26
2018-09-17T09:13:45.320Z,19.29
2018-09-17T09:14:53.966Z,19.38
2018-09-17T09:16:02.614Z,19.38
2018-09-17T09:17:11.521Z,19.48
2018-09-17T09:18:20.166Z,19.52
2018-09-17T09:19:28.838Z,19.6
2018-09-17T09:20:37.732Z,19.6
2018-09-17T09:21:46.641Z,19.67
2018-09-17T09:22:55.284Z,19.64
2018-09-17T09:24:03.933Z,19.75
2018-09-17T09:25:12.581Z,19.81
2018-09-17T09:26:21.781Z,19.79
2018-09-17T09:27:30.580Z,19.94
2018-09-17T09:28:39.229Z,19.96
2018-09-17T09:29:48.145Z,19.94
2018-09-17T09:30:57.212Z,19.92
2018-09-17T09:32:05.787Z,20.07
2018-09-17T09:33:14.436Z,20.1
2018-09-17T09:34:23.082Z,20.02
2018-09-17T09:35:31.732Z,20.12
2018-09-17T09:36:40.382Z,20.14
2018-09-17T09:37:49.285Z,20.21
2018-09-17T09:38:58.032Z,20.24
2018-09-17T09:40:06.707Z,20.18
2018-09-17T09:41:15.357Z,20.18
2018-09-17T09:42:23.996Z,20.18
2018-09-17T09:43:32.644Z,20.19
2018-09-17T09:44:41.292Z,20.17
2018-09-17T09:45:49.942Z,20.24
2018-09-17T09:46:58.586Z,20.18
2018-09-17T09:48:07.236Z,20.18
2018-09-17T09:49:16.156Z,20.15
2018-09-17T09:50:25.069Z,20.12
2018-09-17T09:51:33.713Z,20.21
2018-09-17T09:52:42.690Z,20.14
2018-09-17T09:53:51.271Z,20.26
2018-09-17T09:54:59.915Z,20.19
2018-09-17T09:56:08.569Z,20.17
2018-09-17T09:57:17.217Z,20.22
2018-09-17T09:58:25.865Z,20.15
2018-09-17T09:59:34.545Z,20.21
2018-09-17T10:00:43.160Z,20.21
2018-09-17T10:01:51.809Z,20.3
2018-09-17T10:03:00.456Z,20.34
2018-09-17T10:04:09.099Z,20.52
2018-09-17T10:05:17.751Z,20.55
2018-09-17T10:06:26.660Z,20.6
2018-09-17T10:07:35.313Z,20.52
2018-09-17T10:08:43.952Z,20.6
2018-09-17T10:09:52.872Z,20.55
2018-09-17T10:11:01.523Z,20.56
2018-09-17T10:12:10.174Z,20.52
2018-09-17T10:13:18.825Z,20.53
2018-09-17T10:14:27.463Z,20.63
2018-09-17T10:15:36.117Z,20.71
2018-09-17T10:16:44.759Z,20.74
2018-09-17T10:17:53.416Z,20.78
2018-09-17T10:19:02.055Z,20.89
2018-09-17T10:20:10.711Z,20.89
2018-09-17T10:21:19.354Z,20.86
2018-09-17T10:22:28.014Z,20.95
2018-09-17T10:23:36.658Z,20.95
2018-09-17T10:24:45.303Z,20.96
2018-09-17T10:25:53.948Z,21.01
2018-09-17T10:27:02.606Z,21.08
2018-09-17T10:28:11.252Z,21.08
2018-09-17T10:29:19.897Z,21.14
2018-09-17T10:30:28.636Z,21.23
2018-09-17T10:31:37.302Z,21.26
2018-09-17T10:32:45.960Z,21.26
2018-09-17T10:33:54.867Z,21.33
2018-09-17T10:35:03.523Z,21.43
2018-09-17T10:36:12.160Z,21.54
2018-09-17T10:37:20.817Z,21.59
2018-09-17T10:38:29.461Z,21.66
2018-09-17T10:39:38.143Z,21.69
2018-09-17T10:40:46.760Z,21.72
2018-09-17T10:41:55.423Z,21.78
2018-09-17T10:43:04.329Z,21.75
2018-09-17T10:44:12.987Z,21.84
2018-09-17T10:45:21.628Z,21.83
2018-09-17T10:46:30.281Z,21.89
2018-09-17T10:47:38.936Z,22
2018-09-17T10:48:47.595Z,21.99
2018-09-17T10:49:56.510Z,21.96
2018-09-17T10:51:05.149Z,22.14
2018-09-17T10:52:13.802Z,22.08
2018-09-17T10:53:22.710Z,22.21
2018-09-17T10:54:31.369Z,22.16
2018-09-17T10:55:40.003Z,22.3
2018-09-17T10:56:48.658Z,22.33
2018-09-17T10:57:57.301Z,22.44
2018-09-17T10:59:06.239Z,22.46
2018-09-17T11:00:14.868Z,22.53
2018-09-17T11:01:23.521Z,22.53
2018-09-17T11:02:32.168Z,22.65
2018-09-17T11:03:40.826Z,22.67
2018-09-17T11:04:49.473Z,22.7
2018-09-17T11:05:58.118Z,22.7
2018-09-17T11:07:06.769Z,22.73
2018-09-17T11:08:15.443Z,22.84
2018-09-17T11:09:24.071Z,22.95
2018-09-17T11:10:32.721Z,23.11
2018-09-17T11:11:41.370Z,23.18
2018-09-17T11:12:50.015Z,23.23
2018-09-17T11:13:58.669Z,23.29
2018-09-17T11:15:07.325Z,23.34
2018-09-17T11:16:16.237Z,23.4
2018-09-17T11:17:25.177Z,23.42
2018-09-17T11:18:33.831Z,23.37
2018-09-17T11:19:42.514Z,23.47
2018-09-17T11:20:51.441Z,23.51
2018-09-17T11:22:00.163Z,23.52
2018-09-17T11:23:09.159Z,23.67
2018-09-17T11:24:17.809Z,23.67
2018-09-17T11:25:26.472Z,23.73
2018-09-17T11:26:35.123Z,23.76
2018-09-17T11:27:43.955Z,23.92
2018-09-17T11:28:52.648Z,23.85
2018-09-17T11:30:01.297Z,23.89
2018-09-17T11:31:10.248Z,23.99
2018-09-17T11:32:19.443Z,23.91
2018-09-17T11:33:28.092Z,23.92
2018-09-17T11:34:36.753Z,23.91
2018-09-17T11:35:45.408Z,23.96
2018-09-17T11:36:54.055Z,23.99
2018-09-17T11:38:02.980Z,23.91
2018-09-17T11:39:11.626Z,23.82
2018-09-17T11:40:20.307Z,23.81
2018-09-17T11:41:29.223Z,23.7
2018-09-17T11:42:37.870Z,23.67
2018-09-17T11:43:46.520Z,23.64
2018-09-17T11:44:55.167Z,23.56
2018-09-17T11:46:03.824Z,23.59
2018-09-17T11:47:12.481Z,23.62
2018-09-17T11:48:21.260Z,23.54
2018-09-17T11:49:29.806Z,23.58
2018-09-17T11:50:38.464Z,23.54
2018-09-17T11:51:47.113Z,23.62
2018-09-17T11:52:55.763Z,23.62
2018-09-17T11:54:04.870Z,23.59
2018-09-17T11:55:13.442Z,23.64
2018-09-17T11:56:22.358Z,23.7
2018-09-17T11:57:31.009Z,23.73
2018-09-17T11:58:39.655Z,23.79
2018-09-17T11:59:48.307Z,23.86
2018-09-17T12:00:56.964Z,23.86
2018-09-17T12:02:05.624Z,23.85
2018-09-17T12:03:14.571Z,23.95
2018-09-17T12:04:23.218Z,23.94
2018-09-17T12:05:31.869Z,23.88
2018-09-17T12:06:40.515Z,23.89
2018-09-17T12:07:49.174Z,23.91
2018-09-17T12:08:57.812Z,23.74
2018-09-17T12:10:06.468Z,23.76
2018-09-17T12:11:15.117Z,23.76
2018-09-17T12:12:24.038Z,23.86
2018-09-17T12:13:32.680Z,23.76
2018-09-17T12:14:41.334Z,23.76
2018-09-17T12:15:50.248Z,23.84
2018-09-17T12:16:58.906Z,23.77
2018-09-17T12:18:07.554Z,23.76
2018-09-17T12:19:16.201Z,23.91
2018-09-17T12:20:24.850Z,23.86
2018-09-17T12:21:33.498Z,23.84
2018-09-17T12:22:42.159Z,23.95
2018-09-17T12:23:51.096Z,23.99
2018-09-17T12:24:59.725Z,24.01
2018-09-17T12:26:08.385Z,23.94
2018-09-17T12:27:17.049Z,23.96
2018-09-17T12:28:25.691Z,24.03
2018-09-17T12:29:34.345Z,23.91
2018-09-17T12:30:42.986Z,23.92
2018-09-17T12:31:51.646Z,23.96
2018-09-17T12:33:00.308Z,24.01
2018-09-17T12:34:08.962Z,23.99
2018-09-17T12:35:17.605Z,23.89
2018-09-17T12:36:26.262Z,23.88
2018-09-17T12:37:34.920Z,23.89
2018-09-17T12:38:43.573Z,23.94
2018-09-17T12:39:52.233Z,23.96
2018-09-17T12:41:01.140Z,24.07
2018-09-17T12:42:09.791Z,24.14
2018-09-17T12:43:18.437Z,24.21
2018-09-17T12:44:27.099Z,24.21
2018-09-17T12:45:35.739Z,24.28
2018-09-17T12:46:44.399Z,24.25
2018-09-17T12:47:53.041Z,24.36
2018-09-17T12:49:01.753Z,24.4
2018-09-17T12:50:10.655Z,24.38
2018-09-17T12:51:19.312Z,24.29
2018-09-17T12:52:27.959Z,24.32
2018-09-17T12:53:36.619Z,24.31
2018-09-17T12:54:45.275Z,24.36
2018-09-17T12:55:53.913Z,24.4
2018-09-17T12:57:02.637Z,24.38
2018-09-17T12:58:11.758Z,24.29
2018-09-17T12:59:20.539Z,24.41
2018-09-17T13:00:29.331Z,24.44
2018-09-17T13:01:38.003Z,24.44
2018-09-17T13:02:46.689Z,24.44
2018-09-17T13:03:55.877Z,24.55
2018-09-17T13:05:04.588Z,24.62
2018-09-17T13:06:13.291Z,24.66
2018-09-17T13:07:21.951Z,24.74
2018-09-17T13:08:30.591Z,24.77
2018-09-17T13:09:39.518Z,24.81
2018-09-17T13:10:48.165Z,24.71
2018-09-17T13:11:56.825Z,24.82
2018-09-17T13:13:05.474Z,24.79
2018-09-17T13:14:14.123Z,24.74
2018-09-17T13:15:22.770Z,24.75
2018-09-17T13:16:31.418Z,24.84
2018-09-17T13:17:40.076Z,24.84
2018-09-17T13:18:48.987Z,24.88
2018-09-17T13:19:57.907Z,24.84
2018-09-17T13:21:06.550Z,24.92
2018-09-17T13:22:15.476Z,24.75
2018-09-17T13:23:24.123Z,24.71
2018-09-17T13:24:32.777Z,24.75
2018-09-17T13:25:41.422Z,24.63
2018-09-17T13:26:50.080Z,24.53
2018-09-17T13:27:58.886Z,24.41
2018-09-17T13:29:07.800Z,24.43
2018-09-17T13:30:16.442Z,24.38
2018-09-17T13:31:25.095Z,24.34
2018-09-17T13:32:33.751Z,24.41
2018-09-17T13:33:42.403Z,24.41
2018-09-17T13:34:51.056Z,24.32
2018-09-17T13:35:59.696Z,24.19
2018-09-17T13:37:08.625Z,24.21
2018-09-17T13:38:17.270Z,24.25
2018-09-17T13:39:25.931Z,24.19
2018-09-17T13:40:34.573Z,24.36
2018-09-17T13:41:43.229Z,24.32
2018-09-17T13:42:52.138Z,24.4
2018-09-17T13:44:00.820Z,24.47
2018-09-17T13:45:09.470Z,24.55
2018-09-17T13:46:18.122Z,24.46
2018-09-17T13:47:26.772Z,24.51
2018-09-17T13:48:35.686Z,24.44
2018-09-17T13:49:44.337Z,24.53
2018-09-17T13:50:53.250Z,24.46
2018-09-17T13:52:01.917Z,24.41
2018-09-17T13:53:11.171Z,24.5
2018-09-17T13:54:20.164Z,24.56
2018-09-17T13:55:29.083Z,24.62
2018-09-17T13:56:37.740Z,24.61
2018-09-17T13:57:46.648Z,24.59
2018-09-17T13:58:55.331Z,24.68
2018-09-17T14:00:04.514Z,24.74
2018-09-17T14:01:13.190Z,24.78
2018-09-17T14:02:22.117Z,24.82
2018-09-17T14:03:31.052Z,24.97
2018-09-17T14:04:39.964Z,24.94
2018-09-17T14:05:48.685Z,24.97
2018-09-17T14:06:57.318Z,25.01
2018-09-17T14:08:05.993Z,25.04
2018-09-17T14:09:15.187Z,25.09
2018-09-17T14:10:23.974Z,25.11
2018-09-17T14:11:32.773Z,25.16
2018-09-17T14:12:41.504Z,25.11
2018-09-17T14:13:50.319Z,25.18
2018-09-17T14:14:59.712Z,25.22
2018-09-17T14:16:08.532Z,25.26
2018-09-17T14:17:17.180Z,25.26
2018-09-17T14:18:25.860Z,25.22
2018-09-17T14:19:34.488Z,25.12
2018-09-17T14:20:43.153Z,25.09
2018-09-17T14:21:51.928Z,25.12
2018-09-17T14:23:00.693Z,25.14
2018-09-17T14:24:09.696Z,25.06
2018-09-17T14:25:18.376Z,25.04
2018-09-17T14:26:27.024Z,24.94
2018-09-17T14:27:35.701Z,24.97
2018-09-17T14:28:44.309Z,24.93
2018-09-17T14:29:53.050Z,24.89
2018-09-17T14:31:02.272Z,24.93
2018-09-17T14:32:11.497Z,24.92
2018-09-17T14:33:20.149Z,25
2018-09-17T14:34:28.797Z,25.09
2018-09-17T14:35:38.000Z,25.07
2018-09-17T14:36:46.500Z,25.19
2018-09-17T14:37:55.152Z,25.22
2018-09-17T14:39:04.084Z,25.26
2018-09-17T14:40:12.993Z,25.25
2018-09-17T14:41:21.915Z,25.25
2018-09-17T14:42:30.579Z,25.25
2018-09-17T14:43:39.674Z,25.25
2018-09-17T14:44:48.327Z,25.24
2018-09-17T14:45:57.245Z,25.21
2018-09-17T14:47:05.945Z,25.11
2018-09-17T14:48:14.812Z,25
2018-09-17T14:49:23.482Z,24.97